GGOV

Osvaldo Vieira International Airport

Bissau, Guinea-Bissau
METAR GGOV 181400Z 32004KT 260V360 8000 -TSRA BKN005 SCT014 FEW020CB 25/24 Q1012 NOSIG
Observed Flight Rules
Aug-18 @ 14:00 UTC (52 minutes ago) Instrument Flight Rules
Wind Visibility Clouds Conditions
320° at 4 knots 7,998 meters
  • Broken at 500' AGL
  • Scattered at 1,400' AGL
  • Few at 2,000' AGL
  • Light Thunderstorm
  • Light Rain
Temperatures Readings
Current 25°C / 77°F
Dewpoint 24°C / 75°F
Humidity 94%
Altimeter 29.88" Hg
Pressure 1012 hPa
Elevation 36
METAR GGOV 181400Z 32004KT 260V360 8000 -TSRA BKN005 SCT014 FEW020CB 25/24 Q1012 NOSIG
Observed Flight Rules
Aug-18 @ 14:00 UTC
(52 minutes ago)
IFR
Wind Visibility
320° at 4 knots 7,998 meters
Clouds
  • Broken at 500' AGL
  • Scattered at 1,400' AGL
  • Few at 2,000' AGL
Conditions
  • Light Thunderstorm
  • Light Rain
Temperature Dewpoint
25°C / 77°F 24°C / 75°F
Humidity Altimeter Pressure
94% 29.88" Hg 1012 hPa